createdAt,value
2023-05-18T00:00:16.688Z,95249.94
2023-05-18T00:02:43.639Z,95255.97
2023-05-18T00:05:10.578Z,95249.94
2023-05-18T00:07:37.639Z,95243.03
2023-05-18T00:10:06.250Z,95243.25
2023-05-18T00:12:33.075Z,95238.78
2023-05-18T00:14:59.762Z,95239.69
2023-05-18T00:17:26.624Z,95234.31
2023-05-18T00:19:53.686Z,95232.66
2023-05-18T00:22:20.470Z,95229.13
2023-05-18T00:24:48.075Z,95224.63
2023-05-18T00:27:15.273Z,95226.72
2023-05-18T00:29:42.276Z,95231.25
2023-05-18T00:32:10.113Z,95231.19
2023-05-18T00:34:37.330Z,95224.13
2023-05-18T00:37:04.532Z,95231.97
2023-05-18T00:39:31.414Z,95232.50
2023-05-18T00:41:58.212Z,95224.34
2023-05-18T00:44:26.231Z,95219.13
2023-05-18T00:46:53.337Z,95226.16
2023-05-18T00:49:20.617Z,95239.41
2023-05-18T00:51:48.326Z,95226.38
2023-05-18T00:54:16.700Z,95220.44
2023-05-18T00:56:46.782Z,95226.09
2023-05-18T00:59:13.879Z,95228.50
2023-05-18T01:01:44.017Z,95228.97
2023-05-18T01:04:14.222Z,95222.97
2023-05-18T01:06:42.846Z,95224.75
2023-05-18T01:09:12.113Z,95220.34
2023-05-18T01:12:00.308Z,95212.31
2023-05-18T01:14:42.795Z,95214.97
2023-05-18T01:17:35.829Z,95214.22
2023-05-18T01:20:15.672Z,95216.47
2023-05-18T01:22:58.053Z,95213.31
2023-05-18T01:25:32.241Z,95210.97
2023-05-18T01:28:08.675Z,95199.84
2023-05-18T01:30:41.871Z,95210.19
2023-05-18T01:33:11.847Z,95211.78
2023-05-18T01:35:48.304Z,95207.28
2023-05-18T01:38:21.218Z,95204.63
2023-05-18T01:40:56.876Z,95206.72
2023-05-18T01:43:30.034Z,95204.91
2023-05-18T01:46:01.020Z,95203.00
2023-05-18T01:48:28.217Z,95198.22
2023-05-18T01:50:58.800Z,95207.13
2023-05-18T01:53:38.197Z,95206.34
2023-05-18T01:56:09.764Z,95205.66
2023-05-18T01:58:38.129Z,95204.03
2023-05-18T02:01:05.234Z,95200.91
2023-05-18T02:03:33.575Z,95192.72
2023-05-18T02:06:00.533Z,95191.31
2023-05-18T02:08:27.567Z,95193.66
2023-05-18T02:10:55.005Z,95189.75
2023-05-18T02:13:21.741Z,95189.16
2023-05-18T02:15:49.078Z,95193.97
2023-05-18T02:18:16.616Z,95188.72
2023-05-18T02:20:43.661Z,95190.53
2023-05-18T02:23:11.080Z,95187.09
2023-05-18T02:25:38.722Z,95190.00
2023-05-18T02:28:05.777Z,95192.56
2023-05-18T02:30:33.423Z,95188.94
2023-05-18T02:33:00.220Z,95189.72
2023-05-18T02:35:27.209Z,95180.69
2023-05-18T02:37:54.256Z,95184.44
2023-05-18T02:40:21.209Z,95183.59
2023-05-18T02:42:48.037Z,95172.22
2023-05-18T02:45:15.301Z,95176.41
2023-05-18T02:47:44.235Z,95189.22
2023-05-18T02:50:11.694Z,95174.28
2023-05-18T02:52:39.241Z,95177.81
2023-05-18T02:55:06.378Z,95171.69
2023-05-18T02:58:00.140Z,95176.47
2023-05-18T03:00:49.115Z,95167.69
2023-05-18T03:03:16.230Z,95164.25
2023-05-18T03:05:44.876Z,95166.88
2023-05-18T03:08:11.984Z,95169.75
2023-05-18T03:10:38.845Z,95161.88
2023-05-18T03:13:05.848Z,95175.41
2023-05-18T03:15:32.906Z,95167.63
2023-05-18T03:18:00.088Z,95170.09
2023-05-18T03:20:31.703Z,95172.22
2023-05-18T03:22:58.579Z,95179.03
2023-05-18T03:25:25.731Z,95171.44
2023-05-18T03:27:53.060Z,95180.28
2023-05-18T03:30:20.323Z,95171.59
2023-05-18T03:32:49.844Z,95169.53
2023-05-18T03:35:16.735Z,95174.78
2023-05-18T03:37:43.533Z,95180.97
2023-05-18T03:40:15.711Z,95180.13
2023-05-18T03:42:44.150Z,95186.56
2023-05-18T03:45:12.542Z,95186.78
2023-05-18T03:47:41.182Z,95189.66
2023-05-18T03:50:08.947Z,95185.75
2023-05-18T03:52:37.104Z,95190.69
2023-05-18T03:55:07.091Z,95181.34
2023-05-18T03:57:34.043Z,95187.03
2023-05-18T04:00:07.798Z,95187.88
2023-05-18T04:02:44.106Z,95188.56
2023-05-18T04:05:12.726Z,95183.31
2023-05-18T04:07:44.337Z,95196.41
2023-05-18T04:10:12.481Z,95196.94
2023-05-18T04:12:40.211Z,95186.50
2023-05-18T04:15:07.648Z,95187.59
2023-05-18T04:17:35.600Z,95197.13
2023-05-18T04:20:07.072Z,95189.63
2023-05-18T04:22:36.340Z,95199.72
2023-05-18T04:25:03.339Z,95201.19
2023-05-18T04:27:30.582Z,95197.16
2023-05-18T04:29:57.726Z,95206.69
2023-05-18T04:32:27.475Z,95206.69
2023-05-18T04:34:54.975Z,95210.22
2023-05-18T04:37:22.429Z,95203.19
2023-05-18T04:39:49.227Z,95202.03
2023-05-18T04:42:18.556Z,95206.50
2023-05-18T04:44:45.824Z,95209.38
2023-05-18T04:47:12.961Z,95207.81
2023-05-18T04:49:39.967Z,95205.41
2023-05-18T04:52:10.350Z,95204.75
2023-05-18T04:54:37.910Z,95205.81
2023-05-18T04:57:05.013Z,95202.75
2023-05-18T04:59:36.890Z,95200.47
2023-05-18T05:02:04.731Z,95207.06
2023-05-18T05:04:32.054Z,95212.97
2023-05-18T05:06:58.896Z,95207.75
2023-05-18T05:09:25.599Z,95208.94
2023-05-18T05:11:52.380Z,95205.84
2023-05-18T05:14:19.112Z,95205.72
2023-05-18T05:16:46.407Z,95207.41
2023-05-18T05:19:13.306Z,95212.06
2023-05-18T05:21:40.735Z,95200.66
2023-05-18T05:24:08.501Z,95202.72
2023-05-18T05:26:36.117Z,95207.38
2023-05-18T05:29:03.460Z,95206.47
2023-05-18T05:31:30.735Z,95189.38
2023-05-18T05:33:57.988Z,95187.31
2023-05-18T05:36:25.028Z,95204.81
2023-05-18T05:38:52.168Z,95207.63
2023-05-18T05:41:19.781Z,95198.13
2023-05-18T05:43:48.047Z,95207.19
2023-05-18T05:46:14.883Z,95196.75
2023-05-18T05:48:42.019Z,95200.69
2023-05-18T05:51:08.890Z,95199.66
2023-05-18T05:53:35.651Z,95209.72
2023-05-18T05:56:03.711Z,95199.88
2023-05-18T05:58:31.469Z,95214.78
2023-05-18T06:01:00.154Z,95199.38
2023-05-18T06:03:29.409Z,95207.16
2023-05-18T06:05:59.116Z,95216.53
2023-05-18T06:08:26.140Z,95196.75
2023-05-18T06:10:53.502Z,95195.75
2023-05-18T06:13:20.438Z,95213.41
2023-05-18T06:15:50.223Z,95216.25
2023-05-18T06:18:17.097Z,95187.31
2023-05-18T06:20:45.199Z,95214.72
2023-05-18T06:23:12.243Z,95201.16
2023-05-18T06:25:48.779Z,95208.44
2023-05-18T06:28:41.709Z,95217.81
2023-05-18T06:31:18.974Z,95197.81
2023-05-18T06:34:15.249Z,95213.56
2023-05-18T06:36:42.597Z,95218.75
2023-05-18T06:39:09.426Z,95214.25
2023-05-18T06:41:36.450Z,95216.38
2023-05-18T06:44:03.409Z,95205.28
2023-05-18T06:46:35.423Z,95217.72
2023-05-18T06:49:07.107Z,95196.75
2023-05-18T06:51:33.868Z,95190.28
2023-05-18T06:54:00.933Z,95210.19
2023-05-18T06:56:28.041Z,95237.78
2023-05-18T06:58:55.365Z,95169.34
2023-05-18T07:01:22.314Z,95204.28
2023-05-18T07:03:49.123Z,95199.19
2023-05-18T07:06:15.952Z,95232.69
2023-05-18T07:08:44.705Z,95251.28
2023-05-18T07:11:11.484Z,95202.88
2023-05-18T07:13:38.455Z,95219.81
2023-05-18T07:16:05.542Z,95250.78
2023-05-18T07:18:32.420Z,95240.06
2023-05-18T07:20:59.430Z,95189.53
2023-05-18T07:23:26.188Z,95249.16
2023-05-18T07:25:53.290Z,95276.63
2023-05-18T07:28:20.070Z,95253.66
2023-05-18T07:30:46.856Z,95214.84
2023-05-18T07:33:13.681Z,95219.03
2023-05-18T07:35:40.555Z,95239.34
2023-05-18T07:38:07.549Z,95229.81
2023-05-18T07:40:34.272Z,95214.63
2023-05-18T07:43:01.328Z,95213.97
2023-05-18T07:45:28.367Z,95201.09
2023-05-18T07:47:55.436Z,95231.41
2023-05-18T07:50:22.535Z,95214.94
2023-05-18T07:52:50.471Z,95206.69
2023-05-18T07:55:17.540Z,95242.00
2023-05-18T07:57:44.696Z,95230.34
2023-05-18T08:00:12.270Z,95216.28
2023-05-18T08:02:44.967Z,95206.91
2023-05-18T08:05:12.315Z,95247.47
2023-05-18T08:07:39.094Z,95241.38
2023-05-18T08:10:06.175Z,95253.56
2023-05-18T08:12:32.959Z,95250.28
2023-05-18T08:14:59.901Z,95254.41
2023-05-18T08:17:26.866Z,95249.44
2023-05-18T08:19:54.400Z,95291.91
2023-05-18T08:22:21.451Z,95205.44
2023-05-18T08:24:48.473Z,95245.97
2023-05-18T08:27:15.256Z,95213.91
2023-05-18T08:29:41.964Z,95228.44
2023-05-18T08:32:09.175Z,95234.22
2023-05-18T08:34:36.122Z,95226.88
2023-05-18T08:37:03.120Z,95243.94
2023-05-18T08:39:32.063Z,95182.25
2023-05-18T08:42:10.453Z,95184.41
2023-05-18T08:44:57.202Z,95187.50
2023-05-18T08:47:26.697Z,95223.59
2023-05-18T08:49:56.486Z,95222.31
2023-05-18T08:52:28.957Z,95211.75
2023-05-18T08:55:00.061Z,95212.91
2023-05-18T08:57:30.001Z,95199.91
2023-05-18T09:00:00.426Z,95212.88
2023-05-18T09:02:27.669Z,95209.09
2023-05-18T09:04:56.176Z,95249.81
2023-05-18T09:07:23.583Z,95238.47
2023-05-18T09:09:50.643Z,95218.53
2023-05-18T09:12:20.178Z,95215.75
2023-05-18T09:14:48.659Z,95235.81
2023-05-18T09:17:15.691Z,95239.59
2023-05-18T09:19:42.406Z,95256.78
2023-05-18T09:22:09.645Z,95251.69
2023-05-18T09:24:38.412Z,95218.69
2023-05-18T09:27:06.216Z,95250.66
2023-05-18T09:29:33.893Z,95234.31
2023-05-18T09:32:07.119Z,95218.72
2023-05-18T09:34:41.701Z,95252.97
2023-05-18T09:37:09.886Z,95219.81
2023-05-18T09:39:36.601Z,95246.50
2023-05-18T09:42:04.302Z,95221.97
2023-05-18T09:44:32.706Z,95209.22
2023-05-18T09:46:59.603Z,95220.59
2023-05-18T09:49:29.863Z,95232.09
2023-05-18T09:52:00.007Z,95239.13
2023-05-18T09:54:26.843Z,95270.94
2023-05-18T09:57:08.957Z,95242.63
2023-05-18T09:59:37.402Z,95229.91
2023-05-18T10:02:06.164Z,95229.53
2023-05-18T10:04:41.374Z,95214.00
2023-05-18T10:07:16.485Z,95225.78
2023-05-18T10:09:45.648Z,95235.72
2023-05-18T10:12:17.275Z,95219.00
2023-05-18T10:14:45.938Z,95213.03
2023-05-18T10:17:16.195Z,95229.56
2023-05-18T10:19:45.662Z,95202.81
2023-05-18T10:22:16.120Z,95234.28
2023-05-18T10:24:46.543Z,95196.50
2023-05-18T10:27:16.395Z,95240.47
2023-05-18T10:29:44.843Z,95211.22
2023-05-18T10:32:12.960Z,95193.25
2023-05-18T10:34:41.945Z,95237.34
2023-05-18T10:37:12.072Z,95250.84
2023-05-18T10:39:40.485Z,95214.19
2023-05-18T10:42:09.447Z,95272.78
2023-05-18T10:44:36.919Z,95270.22
2023-05-18T10:47:09.328Z,95290.41
2023-05-18T10:49:38.329Z,95287.44
2023-05-18T10:52:07.341Z,95265.56
2023-05-18T10:54:34.129Z,95300.00
2023-05-18T10:57:02.845Z,95254.34
2023-05-18T10:59:30.205Z,95248.59
2023-05-18T11:01:58.327Z,95208.63
2023-05-18T11:04:30.190Z,95220.69
2023-05-18T11:07:01.584Z,95216.22
2023-05-18T11:09:30.323Z,95237.13
2023-05-18T11:11:58.285Z,95196.84
2023-05-18T11:14:30.366Z,95235.69
2023-05-18T11:17:25.827Z,95224.13
2023-05-18T11:20:12.835Z,95193.56
2023-05-18T11:22:42.624Z,95221.16
2023-05-18T11:25:10.333Z,95191.28
2023-05-18T11:27:38.370Z,95218.22
2023-05-18T11:30:25.537Z,95179.47
2023-05-18T11:32:52.655Z,95199.41
2023-05-18T11:35:25.943Z,95232.47
2023-05-18T11:37:52.776Z,95201.78
2023-05-18T11:40:45.746Z,95253.09
2023-05-18T11:43:38.965Z,95218.19
2023-05-18T11:46:18.646Z,95207.91
2023-05-18T11:48:45.902Z,95229.66
2023-05-18T11:51:13.560Z,95199.78
2023-05-18T11:53:41.429Z,95269.91
2023-05-18T11:56:12.970Z,95220.22
2023-05-18T11:58:39.732Z,95225.41
2023-05-18T12:01:11.741Z,95215.50
2023-05-18T12:03:39.886Z,95227.13
2023-05-18T12:06:07.389Z,95248.00
2023-05-18T12:08:34.286Z,95193.28
2023-05-18T12:11:03.167Z,95173.47
2023-05-18T12:13:30.901Z,95238.09
2023-05-18T12:15:59.175Z,95218.59
2023-05-18T12:18:29.374Z,95230.41
2023-05-18T12:20:56.212Z,95212.13
2023-05-18T12:23:36.975Z,95258.63
2023-05-18T12:26:03.840Z,95218.84
2023-05-18T12:28:31.105Z,95197.63
2023-05-18T12:30:58.709Z,95204.53
2023-05-18T12:33:26.025Z,95211.72
2023-05-18T12:35:55.071Z,95229.53
2023-05-18T12:38:26.209Z,95251.06
2023-05-18T12:40:54.320Z,95231.72
2023-05-18T12:43:21.172Z,95207.22
2023-05-18T12:45:47.991Z,95169.44
2023-05-18T12:48:15.185Z,95174.19
2023-05-18T12:50:49.560Z,95178.13
2023-05-18T12:53:18.194Z,95187.13
2023-05-18T12:55:45.384Z,95222.50
2023-05-18T12:58:19.985Z,95191.88
2023-05-18T13:00:48.646Z,95200.19
2023-05-18T13:03:17.654Z,95205.16
2023-05-18T13:05:46.547Z,95219.16
2023-05-18T13:08:19.977Z,95176.13
2023-05-18T13:10:49.310Z,95174.47
2023-05-18T13:13:22.309Z,95142.44
2023-05-18T13:15:51.167Z,95181.59
2023-05-18T13:18:17.934Z,95218.09
2023-05-18T13:20:50.795Z,95182.53
2023-05-18T13:23:21.248Z,95165.47
2023-05-18T13:25:48.584Z,95176.81
2023-05-18T13:28:17.846Z,95189.56
2023-05-18T13:30:45.802Z,95179.22
2023-05-18T13:33:12.778Z,95217.91
2023-05-18T13:35:43.873Z,95159.16
2023-05-18T13:38:13.291Z,95165.09
2023-05-18T13:40:41.276Z,95169.44
2023-05-18T13:43:10.903Z,95176.94
2023-05-18T13:45:39.424Z,95161.31
2023-05-18T13:48:09.552Z,95129.25
2023-05-18T13:50:37.076Z,95162.41
2023-05-18T13:53:03.942Z,95161.59
2023-05-18T13:55:31.137Z,95153.16
2023-05-18T13:57:58.418Z,95139.38
2023-05-18T14:00:25.293Z,95156.00
2023-05-18T14:02:53.436Z,95169.22
2023-05-18T14:05:20.892Z,95146.38
2023-05-18T14:07:48.181Z,95147.91
2023-05-18T14:10:14.985Z,95168.13
2023-05-18T14:12:42.724Z,95158.44
2023-05-18T14:15:11.034Z,95138.69
2023-05-18T14:17:37.864Z,95142.09
2023-05-18T14:20:05.886Z,95140.59
2023-05-18T14:22:33.218Z,95117.13
2023-05-18T14:25:01.069Z,95136.94
2023-05-18T14:27:28.419Z,95121.75
2023-05-18T14:29:56.258Z,95113.09
2023-05-18T14:32:23.351Z,95114.56
2023-05-18T14:34:55.580Z,95125.25
2023-05-18T14:37:22.673Z,95120.13
2023-05-18T14:39:49.697Z,95132.19
2023-05-18T14:42:16.561Z,95146.78
2023-05-18T14:44:43.339Z,95131.09
2023-05-18T14:47:10.743Z,95129.59
2023-05-18T14:49:38.147Z,95165.00
2023-05-18T14:52:05.601Z,95153.13
2023-05-18T14:54:32.629Z,95129.94
2023-05-18T14:56:59.909Z,95149.31
2023-05-18T14:59:26.745Z,95149.38
2023-05-18T15:01:53.665Z,95140.75
2023-05-18T15:04:22.010Z,95147.81
2023-05-18T15:06:49.771Z,95145.13
2023-05-18T15:09:17.718Z,95149.97
2023-05-18T15:11:44.608Z,95141.88
2023-05-18T15:14:11.548Z,95131.03
2023-05-18T15:16:38.937Z,95118.69
2023-05-18T15:19:06.168Z,95120.25
2023-05-18T15:21:33.043Z,95159.03
2023-05-18T15:23:59.861Z,95152.13
2023-05-18T15:26:26.983Z,95132.19
2023-05-18T15:28:53.869Z,95153.09
2023-05-18T15:31:20.755Z,95158.63
2023-05-18T15:33:47.899Z,95144.47
2023-05-18T15:36:14.699Z,95149.25
2023-05-18T15:38:41.756Z,95150.63
2023-05-18T15:41:08.583Z,95145.16
2023-05-18T15:43:36.700Z,95148.19
2023-05-18T15:46:04.054Z,95148.09
2023-05-18T15:48:30.880Z,95144.16
2023-05-18T15:50:57.936Z,95140.97
2023-05-18T15:53:24.741Z,95139.22
2023-05-18T15:55:57.439Z,95131.88
2023-05-18T15:58:26.637Z,95140.94
2023-05-18T16:00:53.730Z,95139.09
2023-05-18T16:03:20.807Z,95147.63
2023-05-18T16:05:47.638Z,95137.78
2023-05-18T16:08:15.096Z,95144.66
2023-05-18T16:10:42.258Z,95145.50
2023-05-18T16:13:09.034Z,95136.22
2023-05-18T16:15:36.197Z,95136.69
2023-05-18T16:18:03.605Z,95138.75
2023-05-18T16:20:30.947Z,95136.56
2023-05-18T16:22:59.492Z,95153.19
2023-05-18T16:25:26.498Z,95121.78
2023-05-18T16:27:53.262Z,95147.16
2023-05-18T16:30:20.330Z,95145.69
2023-05-18T16:32:47.199Z,95147.81
2023-05-18T16:35:13.984Z,95160.13
2023-05-18T16:37:40.935Z,95144.28
2023-05-18T16:40:08.439Z,95158.47
2023-05-18T16:42:35.362Z,95138.94
2023-05-18T16:45:03.054Z,95146.56
2023-05-18T16:47:32.613Z,95155.19
2023-05-18T16:50:00.653Z,95162.91
2023-05-18T16:52:27.703Z,95167.19
2023-05-18T16:54:54.526Z,95163.03
2023-05-18T16:57:22.241Z,95173.53
2023-05-18T16:59:49.167Z,95159.06
2023-05-18T17:02:17.108Z,95176.00
2023-05-18T17:04:50.076Z,95175.59
2023-05-18T17:07:17.203Z,95169.34
2023-05-18T17:09:44.585Z,95183.44
2023-05-18T17:12:12.185Z,95168.94
2023-05-18T17:14:39.736Z,95184.84
2023-05-18T17:17:07.404Z,95181.47
2023-05-18T17:19:39.452Z,95181.34
2023-05-18T17:22:06.370Z,95187.38
2023-05-18T17:24:33.227Z,95170.84
2023-05-18T17:27:00.702Z,95189.06
2023-05-18T17:29:27.876Z,95169.50
2023-05-18T17:31:55.151Z,95190.50
2023-05-18T17:34:22.919Z,95176.97
2023-05-18T17:36:50.543Z,95192.56
2023-05-18T17:39:17.363Z,95174.75
2023-05-18T17:41:44.606Z,95187.91
2023-05-18T17:44:14.356Z,95173.41
2023-05-18T17:46:41.863Z,95198.34
2023-05-18T17:49:09.054Z,95198.75
2023-05-18T17:51:36.372Z,95146.88
2023-05-18T17:54:04.215Z,95170.06
2023-05-18T17:56:31.828Z,95175.50
2023-05-18T17:58:59.439Z,95189.09
2023-05-18T18:01:27.043Z,95191.84
2023-05-18T18:03:54.517Z,95172.47
2023-05-18T18:06:24.880Z,95177.63
2023-05-18T18:08:53.956Z,95196.59
2023-05-18T18:11:21.910Z,95194.50
2023-05-18T18:13:49.501Z,95177.13
2023-05-18T18:16:17.837Z,95182.72
2023-05-18T18:18:45.379Z,95192.59
2023-05-18T18:21:12.292Z,95190.97
2023-05-18T18:23:40.148Z,95184.97
2023-05-18T18:26:08.167Z,95185.78
2023-05-18T18:28:35.595Z,95199.44
2023-05-18T18:31:03.611Z,95182.88
2023-05-18T18:33:30.791Z,95185.34
2023-05-18T18:35:57.738Z,95188.72
2023-05-18T18:38:27.160Z,95186.63
2023-05-18T18:40:59.890Z,95184.72
2023-05-18T18:43:27.965Z,95183.97
2023-05-18T18:45:57.159Z,95174.66
2023-05-18T18:48:24.963Z,95190.13
2023-05-18T18:50:52.725Z,95175.88
2023-05-18T18:53:19.964Z,95186.88
2023-05-18T18:55:47.121Z,95184.78
2023-05-18T18:58:14.185Z,95196.03
2023-05-18T19:00:41.410Z,95198.63
2023-05-18T19:03:10.085Z,95196.06
2023-05-18T19:05:39.141Z,95196.47
2023-05-18T19:08:06.532Z,95212.91
2023-05-18T19:10:34.484Z,95214.06
2023-05-18T19:13:06.124Z,95207.69
2023-05-18T19:15:34.107Z,95218.31
2023-05-18T19:18:01.771Z,95213.59
2023-05-18T19:20:28.672Z,95211.66
2023-05-18T19:22:55.638Z,95214.69
2023-05-18T19:25:26.450Z,95222.69
2023-05-18T19:27:54.053Z,95225.63
2023-05-18T19:30:22.502Z,95225.34
2023-05-18T19:32:53.291Z,95227.88
2023-05-18T19:35:21.962Z,95223.81
2023-05-18T19:37:48.772Z,95235.41
2023-05-18T19:40:16.474Z,95222.06
2023-05-18T19:42:43.556Z,95243.56
2023-05-18T19:45:10.693Z,95244.03
2023-05-18T19:47:37.678Z,95236.09
2023-05-18T19:50:05.311Z,95241.19
2023-05-18T19:52:33.814Z,95241.22
2023-05-18T19:55:02.099Z,95235.50
2023-05-18T19:57:29.345Z,95246.53
2023-05-18T19:59:56.171Z,95239.72
2023-05-18T20:02:22.964Z,95242.84
2023-05-18T20:04:50.836Z,95245.41
2023-05-18T20:07:18.169Z,95237.38
2023-05-18T20:09:44.954Z,95237.72
2023-05-18T20:12:11.909Z,95241.22
2023-05-18T20:14:39.209Z,95235.28
2023-05-18T20:17:07.246Z,95234.94
2023-05-18T20:19:34.117Z,95235.72
2023-05-18T20:22:01.157Z,95236.53
2023-05-18T20:24:28.046Z,95242.28
2023-05-18T20:26:54.868Z,95235.06
2023-05-18T20:29:22.228Z,95226.72
2023-05-18T20:31:49.463Z,95239.31
2023-05-18T20:34:16.432Z,95242.03
2023-05-18T20:36:43.383Z,95251.34
2023-05-18T20:39:10.266Z,95237.28
2023-05-18T20:41:40.312Z,95237.19
2023-05-18T20:44:10.596Z,95236.47
2023-05-18T20:46:38.174Z,95235.56
2023-05-18T20:49:06.190Z,95240.66
2023-05-18T20:51:33.092Z,95240.41
2023-05-18T20:54:00.151Z,95238.00
2023-05-18T20:56:29.509Z,95237.38
2023-05-18T20:58:56.955Z,95235.28
2023-05-18T21:01:24.013Z,95234.59
2023-05-18T21:03:51.252Z,95224.38
2023-05-18T21:06:18.199Z,95233.97
2023-05-18T21:08:45.433Z,95215.25
2023-05-18T21:11:12.205Z,95236.09
2023-05-18T21:13:39.002Z,95233.56
2023-05-18T21:16:09.624Z,95233.63
2023-05-18T21:18:37.686Z,95231.44
2023-05-18T21:21:04.823Z,95222.09
2023-05-18T21:23:32.209Z,95227.38
2023-05-18T21:25:59.208Z,95227.00
2023-05-18T21:28:26.219Z,95225.69
2023-05-18T21:30:54.643Z,95223.88
2023-05-18T21:33:22.033Z,95219.97
2023-05-18T21:35:49.403Z,95220.22
2023-05-18T21:38:17.252Z,95217.28
2023-05-18T21:40:44.240Z,95213.34
2023-05-18T21:43:11.366Z,95212.47
2023-05-18T21:45:38.794Z,95216.28
2023-05-18T21:48:06.819Z,95218.66
2023-05-18T21:50:36.728Z,95217.56
2023-05-18T21:53:03.783Z,95210.88
2023-05-18T21:55:31.753Z,95204.94
2023-05-18T21:57:58.659Z,95208.19
2023-05-18T22:00:27.090Z,95215.66
2023-05-18T22:02:54.089Z,95211.25
2023-05-18T22:05:21.115Z,95208.25
2023-05-18T22:07:49.238Z,95212.47
2023-05-18T22:10:17.883Z,95203.78
2023-05-18T22:12:45.193Z,95194.09
2023-05-18T22:15:12.744Z,95188.22
2023-05-18T22:17:40.287Z,95194.81
2023-05-18T22:20:11.628Z,95201.53
2023-05-18T22:22:40.406Z,95204.16
2023-05-18T22:25:08.089Z,95193.47
2023-05-18T22:27:36.979Z,95195.94
2023-05-18T22:30:08.282Z,95204.38
2023-05-18T22:32:35.298Z,95197.84
2023-05-18T22:35:03.462Z,95192.22
2023-05-18T22:37:30.807Z,95192.22
2023-05-18T22:39:57.608Z,95191.56
2023-05-18T22:42:24.396Z,95192.03
2023-05-18T22:44:51.417Z,95197.03
2023-05-18T22:47:21.481Z,95193.34
2023-05-18T22:49:49.282Z,95182.38
2023-05-18T22:52:17.859Z,95178.19
2023-05-18T22:54:44.813Z,95181.22
2023-05-18T22:57:11.801Z,95175.56
2023-05-18T22:59:38.698Z,95179.50
2023-05-18T23:02:05.913Z,95191.75
2023-05-18T23:04:34.309Z,95178.13
2023-05-18T23:07:01.850Z,95178.31
2023-05-18T23:09:30.413Z,95181.16
2023-05-18T23:11:59.592Z,95180.97
2023-05-18T23:14:28.213Z,95183.72
2023-05-18T23:16:58.375Z,95183.47
2023-05-18T23:19:26.954Z,95176.53
2023-05-18T23:21:54.009Z,95173.09
2023-05-18T23:24:21.475Z,95178.22
2023-05-18T23:26:48.594Z,95172.13
2023-05-18T23:29:15.434Z,95170.19
2023-05-18T23:31:42.210Z,95175.56
2023-05-18T23:34:09.307Z,95171.88
2023-05-18T23:36:39.678Z,95181.94
2023-05-18T23:39:07.383Z,95180.00
2023-05-18T23:41:36.032Z,95175.47
2023-05-18T23:44:03.396Z,95168.59
2023-05-18T23:46:30.724Z,95181.41
2023-05-18T23:49:00.798Z,95173.63
2023-05-18T23:51:32.037Z,95167.22
2023-05-18T23:53:59.315Z,95175.63
2023-05-18T23:56:26.493Z,95168.31
2023-05-18T23:58:54.061Z,95172.66
